»·PEaware :: QXE2437 KMRY-KSAN

QXE2437 :: KMRY-KSAN

FLIGHT INFORMATION

Flight Status: Arrived
Operator:
Horizon Air
More flights by this operator :: More flights under this callsign
Pilot: Bruno Oliveira (13284)
Aircraft: DEHAVILLAND DASH 8 400
(DH8D)
More flights by this aircraft type
Origin: KMRY Monterey Peninsula
United States
Destination: KSAN San Diego Intl-Lindbergh
United States
More flights between these airports :: More routes between these airports
Route: +MRY4 MRY SERFR MCKEY LAX COMIX1
File this flight plan on PilotEdge
Remarks:
Altitude:
(Current/Filed)
25,000ft
Speed:
(Current/Filed)
318kts
Departed: 19-May-17 12:39 PM
Arrived: 19-May-17 01:58 PM
Distance/Time
Traveled:
326nm/1:18
Distance/Time
To Go:
Arrived

Flight Plot

Page will automatically refresh every two minutes.

Flight plan parsing failed; only flown route is shown


Map Options




Map Legend


Flown Route
Filed Route
Departure Airport
Arrival Airport
Navaid (VOR, NDB)
Fix

Horizontal Profiles

Position Reports

Time Latitude Longitude Heading Altitude Ground
Speed
19-May-17 12:12 36.587632 -121.849959 238 212ft 0kts
19-May-17 12:13 36.587632 -121.849959 238 212ft 0kts
19-May-17 12:14 36.587632 -121.849959 238 212ft 0kts
19-May-17 12:15 36.587632 -121.849959 238 212ft 0kts
19-May-17 12:16 36.587632 -121.849959 238 212ft 0kts
19-May-17 12:17 36.587632 -121.849959 238 212ft 0kts
19-May-17 12:18 36.587632 -121.849959 238 212ft 0kts
19-May-17 12:19 36.587632 -121.849959 238 212ft 0kts
19-May-17 12:20 36.587632 -121.849959 238 212ft 0kts
19-May-17 12:21 36.587632 -121.849959 238 212ft 0kts
19-May-17 12:22 36.587632 -121.849959 238 212ft 0kts
19-May-17 12:23 36.587632 -121.849959 238 212ft 0kts
19-May-17 12:24 36.587632 -121.849959 238 212ft 0kts
19-May-17 12:25 36.587632 -121.849959 238 212ft 0kts
19-May-17 12:26 36.587632 -121.849959 238 212ft 0kts
19-May-17 12:27 36.587632 -121.849959 238 212ft 0kts
19-May-17 12:28 36.587632 -121.849959 238 212ft 0kts
19-May-17 12:29 36.587632 -121.849959 238 212ft 0kts
19-May-17 12:30 36.587632 -121.849959 238 212ft 0kts
19-May-17 12:31 36.587682 -121.849859 238 212ft 3kts
19-May-17 12:32 36.588010 -121.849180 238 212ft 0kts
19-May-17 12:33 36.588010 -121.849180 238 212ft 0kts
19-May-17 12:34 36.588010 -121.849180 238 212ft 0kts
19-May-17 12:35 36.588010 -121.849180 238 212ft 0kts
19-May-17 12:36 36.587737 -121.848969 118 212ft 10kts
19-May-17 12:37 36.585966 -121.844210 114 212ft 17kts
19-May-17 12:38 36.583635 -121.837338 113 212ft 20kts
19-May-17 12:39 36.582857 -121.834821 95 212ft 0kts
19-May-17 12:40 36.583232 -121.833277 308 212ft 7kts
19-May-17 12:41 36.592406 -121.863840 287 1157ft 140kts
19-May-17 12:42 36.629038 -121.895173 342 3157ft 199kts
19-May-17 12:43 36.687202 -121.915937 343 5322ft 229kts
19-May-17 12:44 36.737406 -121.888051 81 7692ft 232kts
19-May-17 12:45 36.697276 -121.829318 147 9804ft 247kts
19-May-17 12:46 36.633823 -121.782289 147 10833ft 289kts
19-May-17 12:47 36.563302 -121.729898 146 11870ft 302kts
19-May-17 12:48 36.491105 -121.676293 147 12917ft 309kts
19-May-17 12:49 36.416894 -121.621212 147 13907ft 313kts
19-May-17 12:50 36.342413 -121.566112 147 14962ft 313kts
19-May-17 12:51 36.267585 -121.510869 147 15939ft 314kts
19-May-17 12:52 36.192640 -121.455723 147 16945ft 314kts
19-May-17 12:53 36.117517 -121.400581 147 17742ft 314kts
19-May-17 12:54 36.041006 -121.349822 158 18716ft 313kts
19-May-17 12:55 35.959385 -121.312079 158 19639ft 312kts
19-May-17 12:56 35.878776 -121.273088 157 20621ft 308kts
19-May-17 12:57 35.798790 -121.234438 158 21593ft 304kts
19-May-17 12:58 35.720136 -121.196568 158 22584ft 299kts
19-May-17 12:59 35.643097 -121.159601 158 23576ft 294kts
19-May-17 13:00 35.566730 -121.123057 158 24547ft 289kts
19-May-17 13:01 35.490867 -121.085169 147 25009ft 303kts
19-May-17 13:02 35.436911 -121.001969 121 25029ft 321kts
19-May-17 13:03 35.385535 -120.910885 123 25021ft 335kts
19-May-17 13:04 35.332174 -120.816931 122 25016ft 344kts
19-May-17 13:05 35.276976 -120.719704 123 25011ft 350kts
19-May-17 13:06 35.221494 -120.622200 123 25009ft 354kts
19-May-17 13:07 35.172369 -120.536218 123 25001ft 353kts
19-May-17 13:08 35.124055 -120.451849 123 25011ft 352kts
19-May-17 13:09 35.068171 -120.354405 123 25013ft 355kts
19-May-17 13:10 35.011931 -120.256613 123 25014ft 357kts
19-May-17 13:11 34.962077 -120.170173 123 25006ft 355kts
19-May-17 13:12 34.904784 -120.071236 123 25013ft 357kts
19-May-17 13:13 34.847871 -119.973116 123 25011ft 358kts
19-May-17 13:14 34.790928 -119.875243 123 25010ft 359kts
19-May-17 13:15 34.732855 -119.775601 123 25009ft 360kts
19-May-17 13:16 34.674846 -119.676403 123 25013ft 360kts
19-May-17 13:17 34.618189 -119.579823 123 25022ft 360kts
19-May-17 13:18 34.561720 -119.483912 123 25018ft 361kts
19-May-17 13:19 34.511194 -119.398137 123 25021ft 359kts
19-May-17 13:20 34.457349 -119.307035 123 25023ft 358kts
19-May-17 13:21 34.410669 -119.228325 123 25018ft 356kts
19-May-17 13:22 34.352780 -119.130760 123 25006ft 359kts
19-May-17 13:23 34.294395 -119.032765 123 24996ft 361kts
19-May-17 13:24 34.235985 -118.934958 124 24993ft 362kts
19-May-17 13:25 34.177392 -118.837118 123 24994ft 363kts
19-May-17 13:26 34.128146 -118.755053 123 24990ft 360kts
19-May-17 13:27 34.079951 -118.674986 123 24992ft 358kts
19-May-17 13:28 34.021318 -118.577712 123 24993ft 361kts
19-May-17 13:29 33.974865 -118.500791 124 24994ft 358kts
19-May-17 13:30 33.930157 -118.427538 126 24994ft 357kts
19-May-17 13:31 33.861489 -118.339267 132 24990ft 362kts
19-May-17 13:32 33.804511 -118.265790 131 24984ft 360kts
19-May-17 13:33 33.736827 -118.177453 130 24981ft 364kts
19-May-17 13:34 33.668676 -118.087665 130 24976ft 366kts
19-May-17 13:35 33.600182 -117.997985 131 24258ft 378kts
19-May-17 13:36 33.529619 -117.906916 133 22260ft 380kts
19-May-17 13:37 33.454091 -117.821452 135 20259ft 378kts
19-May-17 13:38 33.381246 -117.734400 131 18273ft 373kts
19-May-17 13:39 33.310501 -117.646953 132 16308ft 368kts
19-May-17 13:40 33.236755 -117.565175 143 14351ft 361kts
19-May-17 13:41 33.156972 -117.500647 143 12452ft 339kts
19-May-17 13:42 33.086410 -117.441431 143 11842ft 298kts
19-May-17 13:43 33.027421 -117.392034 143 10617ft 298kts
19-May-17 13:44 32.962939 -117.338021 143 9136ft 277kts
19-May-17 13:45 32.909774 -117.293498 143 7825ft 262kts
19-May-17 13:46 32.852140 -117.245695 142 7015ft 245kts
19-May-17 13:47 32.811002 -117.188057 111 7010ft 229kts
19-May-17 13:48 32.783108 -117.117926 112 7001ft 236kts
19-May-17 13:49 32.754980 -117.047791 112 7002ft 234kts
19-May-17 13:50 32.733836 -116.972737 102 6141ft 237kts
19-May-17 13:51 32.718068 -116.900905 101 5160ft 225kts
19-May-17 13:52 32.683777 -116.849159 178 4999ft 221kts
19-May-17 13:53 32.657715 -116.903001 284 4955ft 213kts
19-May-17 13:54 32.676471 -116.965145 295 3939ft 185kts
19-May-17 13:55 32.692779 -117.022051 288 2872ft 168kts
19-May-17 13:56 32.705281 -117.072679 287 2180ft 158kts
19-May-17 13:57 32.714710 -117.114904 290 1261ft 117kts
19-May-17 13:58 32.724453 -117.153026 290 690ft 125kts
19-May-17 13:59 32.733405 -117.189044 285 23ft 69kts
19-May-17 14:00 32.734182 -117.195070 252 22ft 4kts
19-May-17 14:01 32.734104 -117.195379 253 22ft 0kts
19-May-17 14:02 32.733520 -117.197132 196 22ft 10kts
19-May-17 14:03 32.732984 -117.197832 303 22ft 0kts
19-May-17 14:04 32.732984 -117.197832 303 22ft 0kts
19-May-17 14:05 32.732984 -117.197832 303 22ft 0kts

Navigation Log

Ident Type
Flight plan parsing failed, navigation log unavailable